createdAt,value
2022-08-30T00:02:29.923Z,1.17
2022-08-30T00:05:01.600Z,1.45
2022-08-30T00:07:30.102Z,0.80
2022-08-30T00:09:58.533Z,0.90
2022-08-30T00:12:27.158Z,0.95
2022-08-30T00:14:56.457Z,1.17
2022-08-30T00:17:24.800Z,1.45
2022-08-30T00:20:14.622Z,0.82
2022-08-30T00:22:43.191Z,1.23
2022-08-30T00:25:12.936Z,0.88
2022-08-30T00:27:42.163Z,0.80
2022-08-30T00:30:12.336Z,1.10
2022-08-30T00:32:41.464Z,0.95
2022-08-30T00:35:15.169Z,1.00
2022-08-30T00:37:44.684Z,1.20
2022-08-30T00:40:15.993Z,1.20
2022-08-30T00:42:50.623Z,0.90
2022-08-30T00:45:24.454Z,1.00
2022-08-30T00:47:53.431Z,1.20
2022-08-30T00:50:27.343Z,1.30
2022-08-30T00:53:00.073Z,1.23
2022-08-30T00:55:30.393Z,0.98
2022-08-30T00:58:04.242Z,1.45
2022-08-30T01:00:33.911Z,0.80
2022-08-30T01:03:02.415Z,0.93
2022-08-30T01:05:32.351Z,0.93
2022-08-30T01:08:01.139Z,1.25
2022-08-30T01:10:29.523Z,1.30
2022-08-30T01:12:58.169Z,0.90
2022-08-30T01:15:26.924Z,1.60
2022-08-30T01:17:56.968Z,1.40
2022-08-30T01:20:28.635Z,1.40
2022-08-30T01:23:09.870Z,0.98
2022-08-30T01:25:39.114Z,0.80
2022-08-30T01:28:09.794Z,1.23
2022-08-30T01:30:40.382Z,1.08
2022-08-30T01:33:10.563Z,1.73
2022-08-30T01:35:46.245Z,0.93
2022-08-30T01:38:18.418Z,1.23
2022-08-30T01:40:47.112Z,1.08
2022-08-30T01:43:17.156Z,1.10
2022-08-30T01:45:46.489Z,1.10
2022-08-30T01:48:14.874Z,1.20
2022-08-30T01:50:45.490Z,1.45
2022-08-30T01:53:15.451Z,1.15
2022-08-30T01:55:44.103Z,1.10
2022-08-30T01:58:12.927Z,1.17
2022-08-30T02:00:41.836Z,1.13
2022-08-30T02:03:10.683Z,1.08
2022-08-30T02:05:39.203Z,1.30
2022-08-30T02:08:07.895Z,0.95
2022-08-30T02:10:37.752Z,1.10
2022-08-30T02:13:06.230Z,1.40
2022-08-30T02:15:41.526Z,1.08
2022-08-30T02:18:11.491Z,1.20
2022-08-30T02:20:40.751Z,0.95
2022-08-30T02:23:09.167Z,1.23
2022-08-30T02:25:39.131Z,0.90
2022-08-30T02:28:07.785Z,1.10
2022-08-30T02:30:36.989Z,1.65
2022-08-30T02:33:05.810Z,1.13
2022-08-30T02:35:34.231Z,1.30
2022-08-30T02:38:02.709Z,1.10
2022-08-30T02:40:31.248Z,1.15
2022-08-30T02:43:01.249Z,1.02
2022-08-30T02:45:29.755Z,1.10
2022-08-30T02:47:58.147Z,0.77
2022-08-30T02:50:27.065Z,1.08
2022-08-30T02:52:55.655Z,0.93
2022-08-30T02:55:24.733Z,1.15
2022-08-30T02:57:53.220Z,1.20
2022-08-30T03:00:23.117Z,1.15
2022-08-30T03:02:51.639Z,0.90
2022-08-30T03:05:20.341Z,1.20
2022-08-30T03:07:48.963Z,1.00
2022-08-30T03:10:18.182Z,1.45
2022-08-30T03:12:48.061Z,0.97
2022-08-30T03:15:17.802Z,1.02
2022-08-30T03:17:47.615Z,1.15
2022-08-30T03:20:15.982Z,1.35
2022-08-30T03:22:44.364Z,1.17
2022-08-30T03:25:13.572Z,1.20
2022-08-30T03:27:42.306Z,1.40
2022-08-30T03:30:12.273Z,0.82
2022-08-30T03:32:41.114Z,1.13
2022-08-30T03:35:14.156Z,1.10
2022-08-30T03:37:42.726Z,1.05
2022-08-30T03:40:13.359Z,1.13
2022-08-30T03:42:43.399Z,1.40
2022-08-30T03:45:13.243Z,1.13
2022-08-30T03:47:41.934Z,1.60
2022-08-30T03:50:14.167Z,1.23
2022-08-30T03:52:43.001Z,1.10
2022-08-30T03:55:11.501Z,1.30
2022-08-30T03:57:43.406Z,1.20
2022-08-30T04:00:13.980Z,1.13
2022-08-30T04:02:42.985Z,1.30
2022-08-30T04:05:14.119Z,1.20
2022-08-30T04:07:44.952Z,1.10
2022-08-30T04:10:13.593Z,1.30
2022-08-30T04:12:45.066Z,1.10
2022-08-30T04:15:16.266Z,1.25
2022-08-30T04:17:45.376Z,1.17
2022-08-30T04:20:15.248Z,1.40
2022-08-30T04:22:43.672Z,1.10
2022-08-30T04:25:15.663Z,1.13
2022-08-30T04:27:44.993Z,1.20
2022-08-30T04:30:14.813Z,0.98
2022-08-30T04:32:44.157Z,0.90
2022-08-30T04:35:15.635Z,1.20
2022-08-30T04:37:44.046Z,1.55
2022-08-30T04:40:14.264Z,0.98
2022-08-30T04:42:44.593Z,1.10
2022-08-30T04:45:17.632Z,1.10
2022-08-30T04:47:46.471Z,1.33
2022-08-30T04:50:18.487Z,1.63
2022-08-30T04:52:47.329Z,1.30
2022-08-30T04:55:20.074Z,1.37
2022-08-30T04:57:49.106Z,1.55
2022-08-30T05:00:17.896Z,1.30
2022-08-30T05:02:46.251Z,1.25
2022-08-30T05:05:33.646Z,1.30
2022-08-30T05:08:02.444Z,1.30
2022-08-30T05:10:31.122Z,1.35
2022-08-30T05:12:59.684Z,1.52
2022-08-30T05:15:28.083Z,1.60
2022-08-30T05:17:56.504Z,1.52
2022-08-30T05:20:26.390Z,1.08
2022-08-30T05:22:54.665Z,1.25
2022-08-30T05:25:24.785Z,1.38
2022-08-30T05:27:53.584Z,1.13
2022-08-30T05:30:22.971Z,1.17
2022-08-30T05:32:51.659Z,1.40
2022-08-30T05:35:25.384Z,1.23
2022-08-30T05:37:56.198Z,1.10
2022-08-30T05:40:24.863Z,1.07
2022-08-30T05:42:53.323Z,0.93
2022-08-30T05:45:21.846Z,1.07
2022-08-30T05:47:50.277Z,1.00
2022-08-30T05:50:18.761Z,1.00
2022-08-30T05:52:47.084Z,0.93
2022-08-30T05:55:19.052Z,1.10
2022-08-30T05:57:47.473Z,0.85
2022-08-30T06:00:19.036Z,1.13
2022-08-30T06:02:47.744Z,0.80
2022-08-30T06:05:16.258Z,0.90
2022-08-30T06:07:44.996Z,0.80
2022-08-30T06:10:14.060Z,1.30
2022-08-30T06:12:46.581Z,1.15
2022-08-30T06:15:14.998Z,1.10
2022-08-30T06:17:44.199Z,1.17
2022-08-30T06:20:14.192Z,0.95
2022-08-30T06:22:42.670Z,1.70
2022-08-30T06:25:12.215Z,1.00
2022-08-30T06:27:41.825Z,1.10
2022-08-30T06:30:12.351Z,1.23
2022-08-30T06:32:41.509Z,0.93
2022-08-30T06:35:10.853Z,1.08
2022-08-30T06:37:39.394Z,1.20
2022-08-30T06:40:09.246Z,0.97
2022-08-30T06:42:37.933Z,0.98
2022-08-30T06:45:10.986Z,1.00
2022-08-30T06:47:41.608Z,1.00
2022-08-30T06:50:14.905Z,1.00
2022-08-30T06:52:44.920Z,0.90
2022-08-30T06:55:14.438Z,0.90
2022-08-30T06:57:43.320Z,0.80
2022-08-30T07:00:15.589Z,0.70
2022-08-30T07:02:45.538Z,0.70
2022-08-30T07:05:18.641Z,0.85
2022-08-30T07:07:54.498Z,0.60
2022-08-30T07:10:23.193Z,0.82
2022-08-30T07:12:51.766Z,0.80
2022-08-30T07:15:23.066Z,0.73
2022-08-30T07:18:09.934Z,0.77
2022-08-30T07:20:40.882Z,0.80
2022-08-30T07:23:09.925Z,1.00
2022-08-30T07:25:38.557Z,0.80
2022-08-30T07:28:10.368Z,0.60
2022-08-30T07:30:39.810Z,0.68
2022-08-30T07:33:10.467Z,0.77
2022-08-30T07:35:39.170Z,0.70
2022-08-30T07:38:07.574Z,0.90
2022-08-30T07:40:36.121Z,0.50
2022-08-30T07:43:04.624Z,0.50
2022-08-30T07:45:33.032Z,0.45
2022-08-30T07:48:04.338Z,0.50
2022-08-30T07:50:34.129Z,0.60
2022-08-30T07:53:03.988Z,0.30
2022-08-30T07:55:34.093Z,0.40
2022-08-30T08:00:35.893Z,0.40
2022-08-30T08:03:08.207Z,0.53
2022-08-30T08:05:42.119Z,0.30
2022-08-30T08:08:11.476Z,0.30
2022-08-30T08:10:41.784Z,0.25
2022-08-30T08:13:10.326Z,0.40
2022-08-30T08:15:39.090Z,0.45
2022-08-30T08:18:08.671Z,0.20
2022-08-30T08:20:37.469Z,0.40
2022-08-30T08:23:07.295Z,0.30
2022-08-30T08:25:39.950Z,0.47
2022-08-30T08:28:08.864Z,0.50
2022-08-30T08:30:39.272Z,0.30
2022-08-30T08:33:08.451Z,0.45
2022-08-30T08:35:36.909Z,0.40
2022-08-30T08:38:07.151Z,0.30
2022-08-30T08:40:41.314Z,0.45
2022-08-30T08:43:15.107Z,0.30
2022-08-30T08:45:51.455Z,0.50
2022-08-30T08:48:45.599Z,0.47
2022-08-30T08:51:38.714Z,0.40
2022-08-30T08:54:12.368Z,0.40
2022-08-30T08:56:40.753Z,0.30
2022-08-30T08:59:11.739Z,0.50
2022-08-30T09:01:40.671Z,0.40
2022-08-30T09:04:13.814Z,0.55
2022-08-30T09:06:56.743Z,0.40
2022-08-30T09:09:30.133Z,0.40
2022-08-30T09:11:59.044Z,0.28
2022-08-30T09:14:31.007Z,0.35
2022-08-30T09:17:02.959Z,0.30
2022-08-30T09:19:44.302Z,0.40
2022-08-30T09:22:26.525Z,0.40
2022-08-30T09:25:02.818Z,0.32
2022-08-30T09:27:37.504Z,0.30
2022-08-30T09:30:14.335Z,0.30
2022-08-30T09:32:50.850Z,0.47
2022-08-30T09:35:21.877Z,0.50
2022-08-30T09:37:56.856Z,0.50
2022-08-30T09:40:37.556Z,0.40
2022-08-30T09:43:09.148Z,0.40
2022-08-30T09:45:42.725Z,0.47
2022-08-30T09:48:30.280Z,0.40
2022-08-30T09:51:17.404Z,0.50
2022-08-30T09:56:53.937Z,0.30
2022-08-30T09:59:33.946Z,0.50
2022-08-30T10:02:07.847Z,0.30
2022-08-30T10:04:45.135Z,0.55
2022-08-30T10:07:18.819Z,0.40
2022-08-30T10:09:54.954Z,0.60
2022-08-30T10:12:31.413Z,0.50
2022-08-30T10:15:06.870Z,0.50
2022-08-30T10:17:45.238Z,0.60
2022-08-30T10:20:28.105Z,0.40
2022-08-30T10:23:01.550Z,0.50
2022-08-30T10:25:35.099Z,0.60
2022-08-30T10:28:15.786Z,0.52
2022-08-30T10:30:48.850Z,0.55
2022-08-30T10:33:25.851Z,0.40
2022-08-30T10:35:58.719Z,0.37
2022-08-30T10:38:30.796Z,0.43
2022-08-30T10:41:15.660Z,0.60
2022-08-30T10:43:53.853Z,0.40
2022-08-30T10:46:30.992Z,0.40
2022-08-30T10:49:02.445Z,0.60
2022-08-30T10:51:36.984Z,0.40
2022-08-30T10:54:13.967Z,0.50
2022-08-30T10:56:51.502Z,0.60
2022-08-30T10:59:22.678Z,0.40
2022-08-30T11:02:14.946Z,0.50
2022-08-30T11:05:04.724Z,0.60
2022-08-30T11:07:41.962Z,0.40
2022-08-30T11:10:28.627Z,0.88
2022-08-30T11:13:03.295Z,0.60
2022-08-30T11:15:38.066Z,0.63
2022-08-30T11:18:13.147Z,0.60
2022-08-30T11:20:44.298Z,0.40
2022-08-30T11:23:32.828Z,0.60
2022-08-30T11:26:05.440Z,0.52
2022-08-30T11:29:06.671Z,0.40
2022-08-30T11:31:52.127Z,0.50
2022-08-30T11:34:53.676Z,0.40
2022-08-30T11:37:41.750Z,0.55
2022-08-30T11:40:51.835Z,0.40
2022-08-30T11:43:53.140Z,0.50
2022-08-30T11:46:36.351Z,0.45
2022-08-30T11:49:23.433Z,0.50
2022-08-30T11:52:26.650Z,0.40
2022-08-30T11:55:22.387Z,0.50
2022-08-30T11:58:02.193Z,0.60
2022-08-30T12:00:35.135Z,0.60
2022-08-30T12:03:05.715Z,0.60
2022-08-30T12:06:00.026Z,0.47
2022-08-30T12:09:02.297Z,0.40
2022-08-30T12:12:03.307Z,0.52
2022-08-30T12:14:49.187Z,0.43
2022-08-30T12:17:47.926Z,0.55
2022-08-30T12:20:22.629Z,0.40
2022-08-30T12:22:52.368Z,0.50
2022-08-30T12:25:28.232Z,0.40
2022-08-30T12:28:22.550Z,0.50
2022-08-30T12:30:54.232Z,0.50
2022-08-30T12:33:36.618Z,0.50
2022-08-30T12:36:14.961Z,0.40
2022-08-30T12:38:43.438Z,0.30
2022-08-30T12:41:22.765Z,0.57
2022-08-30T12:43:53.258Z,0.40
2022-08-30T12:46:23.945Z,0.30
2022-08-30T12:48:53.028Z,0.40
2022-08-30T12:51:37.340Z,0.77
2022-08-30T12:54:17.830Z,0.30
2022-08-30T12:56:50.057Z,0.30
2022-08-30T12:59:52.819Z,0.30
2022-08-30T13:02:27.759Z,0.30
2022-08-30T13:04:57.352Z,0.20
2022-08-30T13:07:32.604Z,0.30
2022-08-30T13:10:08.979Z,0.40
2022-08-30T13:12:40.997Z,0.32
2022-08-30T13:15:18.452Z,0.60
2022-08-30T13:17:49.966Z,0.40
2022-08-30T13:20:27.361Z,0.40
2022-08-30T13:23:07.009Z,0.30
2022-08-30T13:25:36.347Z,0.25
2022-08-30T13:28:06.672Z,0.27
2022-08-30T13:30:35.539Z,0.40
2022-08-30T13:33:06.193Z,0.47
2022-08-30T13:35:35.103Z,0.40
2022-08-30T13:38:04.698Z,0.30
2022-08-30T13:40:33.173Z,0.30
2022-08-30T13:43:02.663Z,0.28
2022-08-30T13:45:47.159Z,0.50
2022-08-30T13:48:24.724Z,0.70
2022-08-30T13:50:53.749Z,0.30
2022-08-30T13:56:14.090Z,0.30
2022-08-30T13:58:42.794Z,0.35
2022-08-30T14:01:11.342Z,0.30
2022-08-30T14:06:33.992Z,0.45
2022-08-30T14:09:04.666Z,0.40
2022-08-30T14:11:33.386Z,0.30
2022-08-30T14:14:30.263Z,0.50
2022-08-30T14:16:51.119Z,0.43
2022-08-30T14:19:21.121Z,0.60
2022-08-30T14:21:49.745Z,0.32
2022-08-30T14:24:21.495Z,0.50
2022-08-30T14:26:52.721Z,0.40
2022-08-30T14:29:24.843Z,0.30
2022-08-30T14:31:54.146Z,0.40
2022-08-30T14:34:25.193Z,0.40
2022-08-30T14:36:54.002Z,0.50
2022-08-30T14:39:23.535Z,0.65
2022-08-30T14:41:55.423Z,0.40
2022-08-30T14:44:25.139Z,0.50
2022-08-30T14:46:54.555Z,0.55
2022-08-30T14:49:25.402Z,0.47
2022-08-30T14:51:55.141Z,0.30
2022-08-30T14:54:26.439Z,0.45
2022-08-30T14:56:56.519Z,0.40
2022-08-30T14:59:25.965Z,0.70
2022-08-30T15:01:54.513Z,0.37
2022-08-30T15:04:24.494Z,0.40
2022-08-30T15:06:53.721Z,0.40
2022-08-30T15:09:23.920Z,0.45
2022-08-30T15:11:55.030Z,0.60
2022-08-30T15:14:27.234Z,0.25
2022-08-30T15:16:58.401Z,0.30
2022-08-30T15:19:28.926Z,0.50
2022-08-30T15:22:01.116Z,0.30
2022-08-30T15:24:30.126Z,0.40
2022-08-30T15:26:59.771Z,0.32
2022-08-30T15:29:31.663Z,0.50
2022-08-30T15:32:01.513Z,0.43
2022-08-30T15:34:32.352Z,0.50
2022-08-30T15:37:00.811Z,0.30
2022-08-30T15:39:29.636Z,0.30
2022-08-30T15:42:00.985Z,0.30
2022-08-30T15:44:30.801Z,0.50
2022-08-30T15:46:59.517Z,0.40
2022-08-30T15:49:27.884Z,0.30
2022-08-30T15:52:02.195Z,0.40
2022-08-30T15:54:31.264Z,0.40
2022-08-30T15:57:01.438Z,0.40
2022-08-30T15:59:31.677Z,0.37
2022-08-30T16:02:01.116Z,0.30
2022-08-30T16:04:30.188Z,0.40
2022-08-30T16:06:59.948Z,0.30
2022-08-30T16:09:30.054Z,0.47
2022-08-30T16:12:04.684Z,0.40
2022-08-30T16:14:33.708Z,0.40
2022-08-30T16:17:02.641Z,0.60
2022-08-30T16:19:31.272Z,0.60
2022-08-30T16:22:01.701Z,0.45
2022-08-30T16:24:30.107Z,0.60
2022-08-30T16:26:58.611Z,0.68
2022-08-30T16:29:26.957Z,0.70
2022-08-30T16:31:56.777Z,0.60
2022-08-30T16:34:26.097Z,0.57
2022-08-30T16:36:54.702Z,0.70
2022-08-30T16:39:25.019Z,0.80
2022-08-30T16:41:53.445Z,0.60
2022-08-30T16:44:21.878Z,0.60
2022-08-30T16:46:52.784Z,0.75
2022-08-30T16:49:23.092Z,0.75
2022-08-30T16:51:53.519Z,0.60
2022-08-30T16:54:23.454Z,0.82
2022-08-30T16:56:52.249Z,0.80
2022-08-30T16:59:20.698Z,0.67
2022-08-30T17:01:49.638Z,0.52
2022-08-30T17:04:19.750Z,0.80
2022-08-30T17:06:50.200Z,0.50
2022-08-30T17:09:22.270Z,0.60
2022-08-30T17:11:53.041Z,1.27
2022-08-30T17:14:29.209Z,0.60
2022-08-30T17:17:00.321Z,0.57
2022-08-30T17:19:29.641Z,0.70
2022-08-30T17:21:58.598Z,0.55
2022-08-30T17:24:28.000Z,0.53
2022-08-30T17:26:58.347Z,0.50
2022-08-30T17:29:27.022Z,0.50
2022-08-30T17:31:55.551Z,0.60
2022-08-30T17:34:26.652Z,0.43
2022-08-30T17:36:57.281Z,0.40
2022-08-30T17:39:27.912Z,0.75
2022-08-30T17:41:58.100Z,0.60
2022-08-30T17:44:29.754Z,0.53
2022-08-30T17:46:59.475Z,0.50
2022-08-30T17:49:28.962Z,0.40
2022-08-30T17:51:59.187Z,0.60
2022-08-30T17:54:29.145Z,0.55
2022-08-30T17:57:00.386Z,0.60
2022-08-30T17:59:31.731Z,0.50
2022-08-30T18:02:02.442Z,0.50
2022-08-30T18:04:31.420Z,0.45
2022-08-30T18:06:59.896Z,0.60
2022-08-30T18:09:33.209Z,0.50
2022-08-30T18:12:04.096Z,0.50
2022-08-30T18:14:32.627Z,0.60
2022-08-30T18:17:04.014Z,0.52
2022-08-30T18:19:32.605Z,0.50
2022-08-30T18:22:03.277Z,0.60
2022-08-30T18:24:32.100Z,0.60
2022-08-30T18:27:01.897Z,0.60
2022-08-30T18:29:33.847Z,0.55
2022-08-30T18:32:03.663Z,0.50
2022-08-30T18:34:32.940Z,0.70
2022-08-30T18:37:01.861Z,0.77
2022-08-30T18:39:34.140Z,0.50
2022-08-30T18:42:03.920Z,0.60
2022-08-30T18:44:34.065Z,0.60
2022-08-30T18:47:03.964Z,0.70
2022-08-30T18:49:36.359Z,0.60
2022-08-30T18:52:08.265Z,0.70
2022-08-30T18:54:40.417Z,0.63
2022-08-30T18:59:59.299Z,0.30
2022-08-30T19:02:27.984Z,0.40
2022-08-30T19:04:56.740Z,0.43
2022-08-30T19:07:28.969Z,0.50
2022-08-30T19:10:03.061Z,0.40
2022-08-30T19:12:31.689Z,0.32
2022-08-30T19:15:01.557Z,0.40
2022-08-30T19:17:41.425Z,0.50
2022-08-30T19:20:11.143Z,0.45
2022-08-30T19:23:06.167Z,0.60
2022-08-30T19:25:29.005Z,0.40
2022-08-30T19:27:57.410Z,0.47
2022-08-30T19:30:29.731Z,0.30
2022-08-30T19:32:58.944Z,0.63
2022-08-30T19:35:30.162Z,0.40
2022-08-30T19:37:59.507Z,0.80
2022-08-30T19:40:28.124Z,0.40
2022-08-30T19:42:56.906Z,0.70
2022-08-30T19:45:27.151Z,0.35
2022-08-30T19:47:57.908Z,0.45
2022-08-30T19:50:27.179Z,0.60
2022-08-30T19:52:55.590Z,0.57
2022-08-30T19:55:30.019Z,0.60
2022-08-30T19:57:59.942Z,0.90
2022-08-30T20:00:30.639Z,0.80
2022-08-30T20:03:01.419Z,0.50
2022-08-30T20:05:30.859Z,0.60
2022-08-30T20:07:59.698Z,0.65
2022-08-30T20:10:28.261Z,0.57
2022-08-30T20:12:56.783Z,0.50
2022-08-30T20:15:26.418Z,0.60
2022-08-30T20:18:06.161Z,0.60
2022-08-30T20:20:37.256Z,0.83
2022-08-30T20:23:06.483Z,0.65
2022-08-30T20:24:29.884Z,0.50
2022-08-30T20:25:35.035Z,0.50
2022-08-30T20:28:03.937Z,0.52
2022-08-30T20:30:33.450Z,0.60
2022-08-30T20:33:08.411Z,0.60
2022-08-30T20:35:38.455Z,0.60
2022-08-30T20:38:07.186Z,0.55
2022-08-30T20:40:37.245Z,0.60
2022-08-30T20:43:06.815Z,0.60
2022-08-30T20:45:35.930Z,0.65
2022-08-30T20:48:06.453Z,0.60
2022-08-30T20:50:35.118Z,0.80
2022-08-30T20:53:03.450Z,0.60
2022-08-30T20:55:31.961Z,0.70
2022-08-30T20:58:00.592Z,0.70
2022-08-30T21:00:29.168Z,0.50
2022-08-30T21:02:57.989Z,0.45
2022-08-30T21:05:31.004Z,0.70
2022-08-30T21:07:59.445Z,0.52
2022-08-30T21:10:29.193Z,0.50
2022-08-30T21:12:58.910Z,0.40
2022-08-30T21:15:37.196Z,0.43
2022-08-30T21:18:06.930Z,0.50
2022-08-30T21:20:37.146Z,0.50
2022-08-30T21:23:05.622Z,0.63
2022-08-30T21:25:34.391Z,0.70
2022-08-30T21:28:02.916Z,0.80
2022-08-30T21:30:31.436Z,0.30
2022-08-30T21:33:00.961Z,0.40
2022-08-30T21:35:46.966Z,0.40
2022-08-30T21:38:17.729Z,0.57
2022-08-30T21:40:48.603Z,0.37
2022-08-30T21:43:17.289Z,0.40
2022-08-30T21:45:46.798Z,0.30
2022-08-30T21:48:16.429Z,0.38
2022-08-30T21:50:45.809Z,0.40
2022-08-30T21:53:15.309Z,0.45
2022-08-30T21:55:48.076Z,0.40
2022-08-30T21:58:16.889Z,0.30
2022-08-30T22:00:45.270Z,0.70
2022-08-30T22:03:13.899Z,0.40
2022-08-30T22:05:42.483Z,1.95
2022-08-30T22:08:10.971Z,0.40
2022-08-30T22:10:39.382Z,0.50
2022-08-30T22:13:10.197Z,0.50
2022-08-30T22:15:39.128Z,0.38
2022-08-30T22:18:07.927Z,0.50
2022-08-30T22:20:36.368Z,0.60
2022-08-30T22:23:05.367Z,0.40
2022-08-30T22:25:34.024Z,0.57
2022-08-30T22:28:04.359Z,0.43
2022-08-30T22:30:34.284Z,0.63
2022-08-30T22:33:03.054Z,0.50
2022-08-30T22:35:31.386Z,0.50
2022-08-30T22:37:59.744Z,0.73
2022-08-30T22:40:28.706Z,0.70
2022-08-30T22:42:58.362Z,0.60
2022-08-30T22:45:27.168Z,0.40
2022-08-30T22:47:58.213Z,0.65
2022-08-30T22:50:26.940Z,0.75
2022-08-30T22:52:55.380Z,0.50
2022-08-30T22:55:23.706Z,0.50
2022-08-30T22:57:52.236Z,0.60
2022-08-30T23:00:20.791Z,0.50
2022-08-30T23:02:50.908Z,0.90
2022-08-30T23:05:23.617Z,0.40
2022-08-30T23:07:53.064Z,0.80
2022-08-30T23:10:27.983Z,0.55
2022-08-30T23:12:56.451Z,0.80
2022-08-30T23:15:25.177Z,0.98
2022-08-30T23:17:54.880Z,0.93
2022-08-30T23:20:25.206Z,0.90
2022-08-30T23:22:58.148Z,0.73
2022-08-30T23:25:45.846Z,0.70
2022-08-30T23:28:31.996Z,0.90
2022-08-30T23:31:28.305Z,0.87
2022-08-30T23:34:15.037Z,0.70
2022-08-30T23:37:02.504Z,0.70
2022-08-30T23:39:48.556Z,0.85
2022-08-30T23:42:34.507Z,0.90
2022-08-30T23:45:20.076Z,1.00
2022-08-30T23:48:06.122Z,0.80
2022-08-30T23:50:51.699Z,0.90
2022-08-30T23:53:38.773Z,0.75
2022-08-30T23:56:29.473Z,0.80
2022-08-30T23:59:15.558Z,0.80
